Time;durP1;ratioP1;P1;durP2;ratioP2;P2;SDS_P1;SDS_P2;PMS_P1;PMS_P2;Temp;Humidity;BMP_temperature;BMP_pressure;BME280_temperature;BME280_humidity;BME280_pressure;Samples;Min_cycle;Max_cycle;Signal;HPM_P1;HPM_P2
2023/02/04 00:02:13;;;;;;;2.03;1.40;;;;;;;-145.69;100.00;52616.69;5093122;28;20569;-79
2023/02/04 00:04:40;;;;;;;2.20;1.60;;;;;;;-145.69;100.00;52654.31;5102437;28;20228;-79
2023/02/04 00:07:06;;;;;;;1.93;1.00;;;;;;;-145.69;100.00;52646.41;5112499;28;20206;-79
2023/02/04 00:09:32;;;;;;;1.23;1.13;;;;;;;-145.69;100.00;52622.63;5112726;28;20193;-78
2023/02/04 00:12:00;;;;;;;2.27;1.47;;;;;;;-145.69;100.00;52658.28;5113092;28;20204;-79
2023/02/04 00:14:27;;;;;;;1.40;1.20;;;;;;;-145.69;100.00;52630.53;5113155;28;20197;-79
2023/02/04 00:16:53;;;;;;;1.33;1.13;;;;;;;-145.69;100.00;52668.19;5113325;28;20198;-79
2023/02/04 00:19:19;;;;;;;1.90;1.30;;;;;;;-145.69;100.00;52634.50;5112653;28;20652;-78
2023/02/04 00:21:46;;;;;;;1.57;1.40;;;;;;;-145.69;100.00;52640.44;5113419;28;20201;-78
2023/02/04 00:24:12;;;;;;;1.97;1.20;;;;;;;-145.69;100.00;52672.13;5112817;28;20726;-78
2023/02/04 00:26:39;;;;;;;2.00;1.20;;;;;;;-145.69;100.00;52650.34;5113242;28;20232;-78
2023/02/04 00:29:06;;;;;;;3.90;1.27;;;;;;;-145.69;100.00;52670.16;5113062;28;20201;-79
2023/02/04 00:31:33;;;;;;;1.43;1.20;;;;;;;-145.69;100.00;52634.50;5113227;28;20220;-78
2023/02/04 00:33:59;;;;;;;1.47;1.33;;;;;;;-145.69;100.00;52650.34;5112748;28;20209;-78
2023/02/04 00:36:26;;;;;;;1.63;1.30;;;;;;;-145.69;100.00;52638.47;5112986;28;20258;-78
2023/02/04 00:38:52;;;;;;;2.77;1.50;;;;;;;-145.69;100.00;52638.47;5112583;28;20216;-78
2023/02/04 00:41:19;;;;;;;1.90;1.50;;;;;;;-145.69;100.00;52618.66;5113135;28;20208;-78
2023/02/04 00:43:45;;;;;;;1.57;1.37;;;;;;;-145.69;100.00;52666.19;5112630;28;20200;-79
2023/02/04 00:46:13;;;;;;;2.33;1.60;;;;;;;-145.69;100.00;52648.38;5112576;28;20248;-79
2023/02/04 00:48:39;;;;;;;2.83;1.80;;;;;;;-145.69;100.00;52654.31;5112516;28;20205;-79
2023/02/04 00:51:06;;;;;;;2.43;1.73;;;;;;;-145.69;100.00;52662.22;5112861;28;20610;-78
2023/02/04 00:53:32;;;;;;;2.43;1.87;;;;;;;-145.69;100.00;52670.16;5109584;28;20587;-78
2023/02/04 00:55:58;;;;;;;2.43;1.60;;;;;;;-145.69;100.00;52650.34;5112343;28;20194;-78
2023/02/04 00:58:25;;;;;;;3.30;1.70;;;;;;;-145.69;100.00;52646.41;5112517;28;20205;-78
2023/02/04 01:00:51;;;;;;;2.37;1.43;;;;;;;-145.69;100.00;52638.47;5112565;28;20201;-78
2023/02/04 01:03:19;;;;;;;2.83;2.00;;;;;;;-145.69;100.00;52638.47;5114081;28;20201;-78
2023/02/04 01:05:45;;;;;;;3.73;1.90;;;;;;;-145.69;100.00;52662.22;5116101;28;20225;-78
2023/02/04 01:08:12;;;;;;;1.90;1.70;;;;;;;-145.69;100.00;52670.16;5116833;28;20564;-78
2023/02/04 01:10:38;;;;;;;2.90;1.80;;;;;;;-145.69;100.00;52654.31;5116419;28;20620;-78
2023/02/04 01:13:07;;;;;;;3.27;2.00;;;;;;;-145.69;100.00;52654.31;5116133;28;20193;-78
2023/02/04 01:15:33;;;;;;;3.03;2.23;;;;;;;-145.69;100.00;52650.34;5116312;28;20683;-77
2023/02/04 01:18:00;;;;;;;3.27;2.00;;;;;;;-145.69;100.00;52652.34;5116708;28;20197;-77
2023/02/04 01:20:28;;;;;;;3.30;2.00;;;;;;;-145.69;100.00;52618.66;5116611;28;20197;-77
2023/02/04 01:22:54;;;;;;;2.90;2.17;;;;;;;-145.69;100.00;52680.06;5116270;28;20189;-78
2023/02/04 01:25:21;;;;;;;2.90;2.00;;;;;;;-145.69;100.00;52674.13;5116319;28;20228;-78
2023/02/04 01:27:47;;;;;;;3.57;2.37;;;;;;;-145.69;100.00;52652.34;5116101;28;20666;-78
2023/02/04 01:30:15;;;;;;;5.70;2.70;;;;;;;-145.69;100.00;52658.28;5116085;28;20208;-78
2023/02/04 01:32:42;;;;;;;6.37;2.50;;;;;;;-145.69;100.00;52624.59;5116279;28;20582;-78
2023/02/04 01:35:08;;;;;;;4.60;2.73;;;;;;;-145.69;100.00;52620.66;5116020;27;20214;-79
2023/02/04 01:37:36;;;;;;;5.17;2.90;;;;;;;-145.69;100.00;52650.34;5116088;28;20193;-78
2023/02/04 01:40:03;;;;;;;4.53;2.60;;;;;;;-145.69;100.00;52608.75;5116038;28;20601;-78
2023/02/04 01:42:29;;;;;;;5.43;3.07;;;;;;;-145.69;100.00;52622.63;5115575;28;20189;-78
2023/02/04 01:44:56;;;;;;;4.03;2.70;;;;;;;-145.69;100.00;52602.81;5115896;28;20201;-78
2023/02/04 01:47:24;;;;;;;5.43;3.03;;;;;;;-145.69;100.00;52656.28;5115640;28;20229;-78
2023/02/04 01:49:54;;;;;;;5.73;3.63;;;;;;;-145.69;100.00;52646.41;5115653;28;20251;-78
2023/02/04 01:52:21;;;;;;;6.80;3.60;;;;;;;-145.69;100.00;52630.53;5116002;27;20205;-78
2023/02/04 01:54:49;;;;;;;6.13;3.67;;;;;;;-145.69;100.00;52664.22;5115588;28;20201;-78
2023/02/04 01:57:16;;;;;;;6.20;3.40;;;;;;;-145.69;100.00;52640.44;5115598;28;20204;-78
2023/02/04 01:59:44;;;;;;;6.17;3.80;;;;;;;-145.69;100.00;52638.47;5115761;28;20209;-77
2023/02/04 02:02:39;;;;;;;8.43;3.97;;;;;;;-145.69;100.00;52644.41;5115703;28;20205;-77
2023/02/04 02:05:07;;;;;;;6.83;3.40;;;;;;;-145.69;100.00;52670.16;5115059;28;20200;-77
2023/02/04 02:07:34;;;;;;;8.20;4.17;;;;;;;-145.69;100.00;52622.63;5115304;28;20556;-77
2023/02/04 02:10:02;;;;;;;7.37;4.00;;;;;;;-145.69;100.00;52652.34;5115226;28;20201;-77
2023/02/04 02:12:29;;;;;;;8.73;4.20;;;;;;;-145.69;100.00;52650.34;5115467;27;20205;-77
2023/02/04 02:14:55;;;;;;;6.33;3.50;;;;;;;-145.69;100.00;52654.31;5114730;28;20216;-77
2023/02/04 02:17:22;;;;;;;6.40;3.70;;;;;;;-145.69;100.00;52634.50;5114933;28;20198;-78
2023/02/04 02:19:48;;;;;;;7.83;3.90;;;;;;;-145.69;100.00;52654.31;5115002;28;20580;-78
2023/02/04 02:22:22;;;;;;;5.83;3.50;;;;;;;-145.69;100.00;52652.34;5114762;28;20204;-78
2023/02/04 02:24:49;;;;;;;9.80;4.27;;;;;;;-145.69;100.00;52638.47;5115118;28;20201;-78
2023/02/04 02:27:16;;;;;;;5.80;3.83;;;;;;;-145.69;100.00;52646.41;5115157;28;20228;-78
2023/02/04 02:29:43;;;;;;;5.57;3.60;;;;;;;-145.69;100.00;52632.53;5115121;28;20205;-78
2023/02/04 02:32:11;;;;;;;6.90;3.83;;;;;;;-145.69;100.00;52642.44;5114705;28;20190;-78
2023/02/04 02:34:39;;;;;;;6.83;3.80;;;;;;;-145.69;100.00;52664.22;5114585;28;20557;-77
2023/02/04 02:37:07;;;;;;;5.40;3.50;;;;;;;-145.69;100.00;52636.50;5114718;28;20590;-77
2023/02/04 02:39:34;;;;;;;6.23;3.63;;;;;;;-145.69;100.00;52682.03;5114155;28;20201;-77
2023/02/04 02:42:03;;;;;;;6.40;3.63;;;;;;;-145.69;100.00;52656.28;5114796;28;20223;-76
2023/02/04 02:44:30;;;;;;;5.77;3.60;;;;;;;-145.69;100.00;52618.66;5114264;28;20208;-78
2023/02/04 02:46:56;;;;;;;6.40;3.57;;;;;;;-145.69;100.00;52650.34;5114700;28;20241;-77
2023/02/04 02:49:23;;;;;;;5.90;3.50;;;;;;;-145.69;100.00;52656.28;5114468;28;20197;-78
2023/02/04 02:51:49;;;;;;;6.03;3.50;;;;;;;-145.69;100.00;52648.38;5114869;28;20228;-78
2023/02/04 02:54:24;;;;;;;5.03;3.27;;;;;;;-145.69;100.00;52662.22;5114663;28;20201;-78
2023/02/04 02:56:51;;;;;;;6.40;3.53;;;;;;;-145.69;100.00;52620.66;5114649;28;20682;-78
2023/02/04 02:59:19;;;;;;;5.97;3.57;;;;;;;-145.69;100.00;52642.44;5114403;28;20212;-78
2023/02/04 03:01:48;;;;;;;4.90;3.23;;;;;;;-145.69;100.00;52672.13;5114257;28;20655;-78
2023/02/04 03:04:15;;;;;;;7.80;3.00;;;;;;;-145.69;100.00;52668.19;5111320;28;20197;-77
2023/02/04 03:06:42;;;;;;;5.20;2.90;;;;;;;-145.69;100.00;52662.22;5114336;28;20228;-78
2023/02/04 03:09:08;;;;;;;4.70;2.97;;;;;;;-145.69;100.00;52654.31;5113664;28;20660;-78
2023/02/04 03:11:34;;;;;;;4.20;2.67;;;;;;;-145.69;100.00;52636.50;5114413;28;20224;-78
2023/02/04 03:14:02;;;;;;;3.67;2.50;;;;;;;-145.69;100.00;52642.44;5113790;28;20670;-77
2023/02/04 03:16:32;;;;;;;7.97;2.47;;;;;;;-145.69;100.00;52674.13;5114040;28;20201;-77
2023/02/04 03:18:59;;;;;;;3.03;2.10;;;;;;;-145.69;100.00;52693.94;5113906;28;20208;-77
2023/02/04 03:21:26;;;;;;;2.87;2.10;;;;;;;-145.69;100.00;52624.59;5114201;28;20197;-77
2023/02/04 03:23:55;;;;;;;4.63;2.33;;;;;;;-145.69;100.00;52642.44;5114077;28;20197;-78
2023/02/04 03:26:22;;;;;;;4.63;2.20;;;;;;;-145.69;100.00;52658.28;5113230;28;20231;-78
2023/02/04 03:28:49;;;;;;;2.40;1.90;;;;;;;-145.69;100.00;52658.28;5113650;28;20206;-78
2023/02/04 03:31:15;;;;;;;3.10;1.83;;;;;;;-145.69;100.00;52658.28;5113815;28;20201;-78
2023/02/04 03:33:43;;;;;;;2.70;2.10;;;;;;;-145.69;100.00;52662.22;5113384;28;20197;-78
2023/02/04 03:36:10;;;;;;;3.60;1.90;;;;;;;-145.69;100.00;52638.47;5113915;28;20201;-78
2023/02/04 03:38:36;;;;;;;2.93;1.77;;;;;;;-145.69;100.00;52662.22;5113765;28;20201;-78
2023/02/04 03:41:03;;;;;;;2.90;2.40;;;;;;;-145.69;100.00;52642.44;5113300;28;20750;-78
2023/02/04 03:43:29;;;;;;;2.87;1.93;;;;;;;-145.69;100.00;52636.50;5113347;28;20194;-79
2023/02/04 03:45:55;;;;;;;2.90;1.93;;;;;;;-145.69;100.00;52658.28;5113482;28;20240;-78
2023/02/04 03:48:22;;;;;;;3.63;2.20;;;;;;;-145.69;100.00;52662.22;5113777;28;20203;-78
2023/02/04 03:50:50;;;;;;;2.23;1.87;;;;;;;-145.69;100.00;52674.13;5113590;28;20205;-78
2023/02/04 03:53:16;;;;;;;3.13;1.97;;;;;;;-145.69;100.00;52642.44;5113477;28;20201;-79
2023/02/04 03:55:43;;;;;;;2.83;1.77;;;;;;;-145.69;100.00;52646.41;5113703;28;20666;-79
2023/02/04 03:58:09;;;;;;;1.70;1.43;;;;;;;-145.69;100.00;52652.34;5113395;28;20196;-78
2023/02/04 04:00:36;;;;;;;2.33;1.80;;;;;;;-145.69;100.00;52670.16;5113694;28;20197;-78
2023/02/04 04:03:02;;;;;;;2.43;1.70;;;;;;;-145.69;100.00;52658.28;5113579;28;20201;-78
2023/02/04 04:05:28;;;;;;;2.67;1.47;;;;;;;-145.69;100.00;52680.06;5112981;28;20194;-78
2023/02/04 04:07:56;;;;;;;2.03;1.70;;;;;;;-145.69;100.00;52640.44;5113368;28;20232;-78
2023/02/04 04:10:23;;;;;;;3.07;1.70;;;;;;;-145.69;100.00;52652.34;5113054;28;20232;-78
2023/02/04 04:12:49;;;;;;;2.70;1.70;;;;;;;-145.69;100.00;52662.22;5113303;28;20194;-78
2023/02/04 04:15:16;;;;;;;4.67;1.80;;;;;;;-145.69;100.00;52654.31;5113470;28;20556;-78
2023/02/04 04:17:42;;;;;;;2.00;1.40;;;;;;;-145.69;100.00;52682.03;5113424;28;20201;-78
2023/02/04 04:20:10;;;;;;;2.03;1.60;;;;;;;-145.69;100.00;52652.34;5113328;28;20225;-79
2023/02/04 04:22:36;;;;;;;2.37;1.60;;;;;;;-145.69;100.00;52638.47;5113379;28;20205;-78
2023/02/04 04:25:05;;;;;;;2.70;1.77;;;;;;;-145.69;100.00;52668.19;5113055;28;20571;-79
2023/02/04 04:27:31;;;;;;;2.07;1.40;;;;;;;-145.69;100.00;52676.09;5113037;28;20229;-78
2023/02/04 04:29:58;;;;;;;3.17;1.93;;;;;;;-145.69;100.00;52666.19;5112598;28;20675;-78
2023/02/04 04:32:24;;;;;;;2.87;1.47;;;;;;;-145.69;100.00;52664.22;5113015;28;20194;-78
2023/02/04 04:34:51;;;;;;;1.70;1.40;;;;;;;-145.69;100.00;52670.16;5113068;28;20200;-78
2023/02/04 04:37:17;;;;;;;3.30;1.63;;;;;;;-145.69;100.00;52658.28;5112395;28;20240;-78
2023/02/04 04:39:44;;;;;;;2.23;1.63;;;;;;;-145.69;100.00;52620.66;5116337;28;20185;-78
2023/02/04 04:42:12;;;;;;;2.03;1.60;;;;;;;-145.69;100.00;52640.44;5117111;28;20197;-78
2023/02/04 04:44:38;;;;;;;2.20;1.40;;;;;;;-145.69;100.00;52666.19;5117033;28;20201;-78
2023/02/04 04:47:04;;;;;;;1.30;1.20;;;;;;;-145.69;100.00;52628.56;5116935;28;20233;-78
2023/02/04 04:49:31;;;;;;;6.00;1.57;;;;;;;-145.69;100.00;52648.38;5116847;28;20202;-78
2023/02/04 04:51:57;;;;;;;1.70;1.30;;;;;;;-145.69;100.00;52666.19;5117058;28;20229;-78
2023/02/04 04:54:24;;;;;;;2.63;1.60;;;;;;;-145.69;100.00;52658.28;5116732;28;20651;-78
2023/02/04 04:56:50;;;;;;;6.10;2.90;;;;;;;-145.69;100.00;52686.00;5117024;28;20246;-78
2023/02/04 04:59:18;;;;;;;7.17;3.13;;;;;;;-145.69;100.00;52636.50;5116905;28;20202;-78
2023/02/04 05:01:44;;;;;;;2.00;1.70;;;;;;;-145.69;100.00;52662.22;5112205;28;20193;-78
2023/02/04 05:04:11;;;;;;;1.77;1.50;;;;;;;-145.69;100.00;52616.69;5096433;28;20205;-78
2023/02/04 05:06:37;;;;;;;1.93;1.40;;;;;;;-145.69;100.00;52648.38;5096154;28;20588;-78
2023/02/04 05:09:03;;;;;;;1.60;1.30;;;;;;;-145.69;100.00;52705.81;5103084;28;20200;-78
2023/02/04 05:11:30;;;;;;;2.87;1.60;;;;;;;-145.69;100.00;52640.44;5116358;28;20193;-78
2023/02/04 05:13:56;;;;;;;2.87;1.93;;;;;;;-145.69;100.00;52612.72;5116616;28;20225;-78
2023/02/04 05:16:24;;;;;;;1.20;0.93;;;;;;;-145.69;100.00;52646.41;5116710;28;20211;-78
2023/02/04 05:18:51;;;;;;;0.90;0.90;;;;;;;-145.69;100.00;52628.56;5116477;28;20656;-78
2023/02/04 05:21:17;;;;;;;1.17;0.90;;;;;;;-145.69;100.00;52640.44;5116377;28;20209;-78
2023/02/04 05:23:43;;;;;;;1.70;0.90;;;;;;;-145.69;100.00;52684.03;5116583;28;20204;-78
2023/02/04 05:26:10;;;;;;;0.70;0.70;;;;;;;-145.69;100.00;52654.31;5116247;28;20640;-78
2023/02/04 05:28:36;;;;;;;0.80;0.80;;;;;;;-145.69;100.00;52686.00;5116046;28;20201;-78
2023/02/04 05:31:03;;;;;;;0.80;0.80;;;;;;;-145.69;100.00;52684.03;5116001;28;20197;-78
2023/02/04 05:33:30;;;;;;;0.63;0.63;;;;;;;-145.69;100.00;52682.03;5116282;28;20652;-78
2023/02/04 05:35:57;;;;;;;0.80;0.80;;;;;;;-145.69;100.00;52678.09;5115975;28;20210;-78
2023/02/04 05:38:23;;;;;;;0.90;0.80;;;;;;;-145.69;100.00;52682.03;5115946;28;20205;-78
2023/02/04 05:40:50;;;;;;;1.03;0.70;;;;;;;-145.69;100.00;52640.44;5115536;28;20201;-78
2023/02/04 05:43:16;;;;;;;1.13;1.00;;;;;;;-145.69;100.00;52670.16;5115981;28;20204;-78
2023/02/04 05:45:43;;;;;;;1.00;0.90;;;;;;;-145.69;100.00;52676.09;5115544;28;20209;-78
2023/02/04 05:48:09;;;;;;;1.23;0.93;;;;;;;-145.69;100.00;52672.13;5115634;28;20695;-78
2023/02/04 05:50:38;;;;;;;1.30;0.97;;;;;;;-145.69;100.00;52670.16;5114583;28;20682;-78
2023/02/04 05:53:05;;;;;;;1.07;0.90;;;;;;;-145.69;100.00;52666.19;5116027;28;20206;-78
2023/02/04 05:55:31;;;;;;;1.70;1.20;;;;;;;-145.69;100.00;52638.47;5115836;28;20208;-78
2023/02/04 05:57:58;;;;;;;1.50;1.10;;;;;;;-145.69;100.00;52630.53;5115909;28;20220;-78
2023/02/04 06:00:24;;;;;;;1.40;1.30;;;;;;;-145.69;100.00;52674.13;5115148;28;20545;-78
2023/02/04 06:02:51;;;;;;;1.30;1.20;;;;;;;-145.69;100.00;52650.34;5115802;28;20565;-78
2023/02/04 06:05:18;;;;;;;1.20;1.10;;;;;;;-145.69;100.00;52638.47;5115014;28;20185;-78
2023/02/04 06:07:45;;;;;;;3.50;1.20;;;;;;;-145.69;100.00;52654.31;5115666;28;20719;-78
2023/02/04 06:10:12;;;;;;;3.20;1.40;;;;;;;-145.69;100.00;52664.22;5115203;28;20204;-79
2023/02/04 06:12:38;;;;;;;0.80;0.60;;;;;;;-145.69;100.00;52693.94;5115681;28;20208;-78
2023/02/04 06:15:06;;;;;;;0.63;0.63;;;;;;;-145.69;100.00;52626.59;5114864;28;20193;-77
2023/02/04 06:17:32;;;;;;;0.83;0.70;;;;;;;-145.69;100.00;52670.16;5115391;28;20200;-78
2023/02/04 06:19:59;;;;;;;2.50;0.70;;;;;;;-145.69;100.00;52618.66;5114982;28;20201;-77
2023/02/04 06:22:25;;;;;;;6.70;1.27;;;;;;;-145.69;100.00;52678.09;5115220;28;20205;-80
2023/02/04 06:24:53;;;;;;;1.67;1.03;;;;;;;-145.69;100.00;52705.81;5115232;28;20198;-79
2023/02/04 06:27:22;;;;;;;3.83;1.20;;;;;;;-145.69;100.00;52658.28;5115188;28;20225;-79
2023/02/04 06:29:48;;;;;;;3.30;1.07;;;;;;;-145.69;100.00;52674.13;5114945;28;20286;-79
2023/02/04 06:32:15;;;;;;;7.83;1.40;;;;;;;-145.69;100.00;52697.88;5114704;28;20190;-78
2023/02/04 06:34:41;;;;;;;3.87;1.50;;;;;;;-145.69;100.00;52674.13;5115030;28;20194;-78
2023/02/04 06:37:08;;;;;;;6.83;1.30;;;;;;;-145.69;100.00;52668.19;5114726;28;20201;-78
2023/02/04 06:39:34;;;;;;;3.87;1.57;;;;;;;-145.69;100.00;52674.13;5114488;28;20193;-78
2023/02/04 06:42:02;;;;;;;2.10;1.10;;;;;;;-145.69;100.00;52658.28;5114695;28;20675;-78
2023/02/04 06:44:28;;;;;;;10.00;1.70;;;;;;;-145.69;100.00;52672.13;5114595;28;20201;-77
2023/02/04 06:46:55;;;;;;;5.63;1.43;;;;;;;-145.69;100.00;52674.13;5114473;28;20225;-78
2023/02/04 06:49:23;;;;;;;4.90;2.03;;;;;;;-145.69;100.00;52672.13;5114721;28;20205;-77
2023/02/04 06:51:50;;;;;;;7.07;1.23;;;;;;;-145.69;100.00;52666.19;5114366;28;20205;-78
2023/02/04 06:54:17;;;;;;;4.73;1.60;;;;;;;-145.69;100.00;52709.78;5114633;28;20193;-77
2023/02/04 06:56:44;;;;;;;4.47;1.50;;;;;;;-145.69;100.00;52646.41;5112404;28;20194;-77
2023/02/04 06:59:11;;;;;;;9.30;1.20;;;;;;;-145.69;100.00;52693.94;5094993;28;20198;-77
2023/02/04 07:01:38;;;;;;;5.20;1.37;;;;;;;-145.69;100.00;52680.06;5104481;28;20204;-77
2023/02/04 07:04:04;;;;;;;4.60;1.33;;;;;;;-145.69;100.00;52682.03;5114564;28;20201;-77
2023/02/04 07:06:31;;;;;;;8.90;1.60;;;;;;;-145.69;100.00;52701.84;5114371;28;20200;-78
2023/02/04 07:08:57;;;;;;;6.07;1.50;;;;;;;-145.69;100.00;52654.31;5114442;28;20204;-78
2023/02/04 07:11:24;;;;;;;6.03;1.57;;;;;;;-145.69;100.00;52678.09;5113996;28;20197;-78
2023/02/04 07:13:50;;;;;;;5.00;2.20;;;;;;;-145.69;100.00;52686.00;5114099;28;20658;-78
2023/02/04 07:16:18;;;;;;;5.00;1.30;;;;;;;-145.69;100.00;52668.19;5114021;28;20197;-78
2023/02/04 07:18:44;;;;;;;9.73;1.77;;;;;;;-145.69;100.00;52703.81;5114142;28;20204;-78
2023/02/04 07:21:11;;;;;;;11.23;1.83;;;;;;;-145.69;100.00;52699.88;5113935;28;20594;-78
2023/02/04 07:23:37;;;;;;;12.13;1.87;;;;;;;-145.69;100.00;52630.53;5114116;28;20656;-78
2023/02/04 07:26:04;;;;;;;8.67;1.53;;;;;;;-145.69;100.00;52713.72;5114138;28;20194;-78
2023/02/04 07:28:31;;;;;;;13.33;1.90;;;;;;;-145.69;100.00;52691.94;5113784;28;20638;-78
2023/02/04 07:30:57;;;;;;;8.67;1.90;;;;;;;-145.69;100.00;52709.78;5113780;28;20255;-78
2023/02/04 07:33:25;;;;;;;9.57;2.23;;;;;;;-145.69;100.00;52715.72;5113791;28;20679;-78
2023/02/04 07:35:51;;;;;;;12.53;3.57;;;;;;;-145.69;100.00;52674.13;5113857;28;20212;-77
2023/02/04 07:38:18;;;;;;;12.67;3.80;;;;;;;-145.69;100.00;52693.94;5114157;28;20212;-78
2023/02/04 07:40:45;;;;;;;14.27;4.67;;;;;;;-145.69;100.00;52676.09;5113033;28;20193;-78
2023/02/04 07:43:11;;;;;;;14.07;4.27;;;;;;;-145.69;100.00;52682.03;5113647;28;20261;-78
2023/02/04 07:45:37;;;;;;;17.93;6.53;;;;;;;-145.69;100.00;52670.16;5113438;28;20556;-77
2023/02/04 07:48:04;;;;;;;22.67;7.50;;;;;;;-145.69;100.00;52678.09;5113757;28;20220;-77
2023/02/04 07:50:32;;;;;;;14.63;6.20;;;;;;;-145.69;100.00;52662.22;5113452;28;20544;-77
2023/02/04 07:52:59;;;;;;;11.90;4.13;;;;;;;-145.69;100.00;52668.19;5113526;28;20200;-77
2023/02/04 07:55:25;;;;;;;11.80;4.70;;;;;;;-145.69;100.00;52668.19;5113411;28;20598;-77
2023/02/04 07:57:52;;;;;;;13.77;4.10;;;;;;;-145.69;100.00;52660.25;5113703;28;20193;-77
2023/02/04 08:00:18;;;;;;;12.07;4.30;;;;;;;-145.69;100.00;52684.03;5113644;28;20205;-77
2023/02/04 08:02:45;;;;;;;13.90;4.77;;;;;;;-145.69;100.00;52693.94;5112871;28;20201;-77
2023/02/04 08:05:11;;;;;;;11.10;4.03;;;;;;;-145.69;100.00;52670.16;5113373;28;20197;-78
2023/02/04 08:07:39;;;;;;;10.00;2.80;;;;;;;-145.69;100.00;52652.34;5113327;28;20221;-77
2023/02/04 08:10:07;;;;;;;6.80;2.57;;;;;;;-145.69;100.00;52662.22;5113279;28;20197;-77
2023/02/04 08:12:33;;;;;;;7.70;2.40;;;;;;;-145.69;100.00;52662.22;5113016;28;20560;-78
2023/02/04 08:15:01;;;;;;;7.53;2.87;;;;;;;-145.69;100.00;52676.09;5113415;28;20529;-78
2023/02/04 08:17:27;;;;;;;10.20;3.60;;;;;;;-145.69;100.00;52680.06;5112948;28;20242;-78
2023/02/04 08:19:53;;;;;;;12.10;3.47;;;;;;;-145.69;100.00;52703.81;5113458;28;20208;-78
2023/02/04 08:22:20;;;;;;;11.87;3.10;;;;;;;-145.69;100.00;52676.09;5113202;28;20196;-78
2023/02/04 08:24:48;;;;;;;7.83;2.90;;;;;;;-145.69;100.00;52687.97;5112831;28;20204;-77
2023/02/04 08:27:14;;;;;;;15.30;3.83;;;;;;;-145.69;100.00;52682.03;5113205;28;20208;-77
2023/02/04 08:29:41;;;;;;;10.47;3.17;;;;;;;-145.69;100.00;52676.09;5113208;28;20213;-77
2023/02/04 08:32:08;;;;;;;6.70;2.90;;;;;;;-145.69;100.00;52674.13;5112594;28;20201;-78
2023/02/04 08:34:35;;;;;;;10.17;3.63;;;;;;;-145.69;100.00;52670.16;5112753;28;20698;-78
2023/02/04 08:37:01;;;;;;;16.83;3.10;;;;;;;-145.69;100.00;52684.03;5112949;28;20201;-78
2023/02/04 08:39:28;;;;;;;17.27;4.13;;;;;;;-145.69;100.00;52660.25;5112614;28;20194;-77
2023/02/04 08:41:56;;;;;;;10.57;3.60;;;;;;;-145.69;100.00;52670.16;5113237;28;20197;-77
2023/02/04 08:44:22;;;;;;;13.10;4.40;;;;;;;-145.69;100.00;52658.28;5113063;28;20201;-77
2023/02/04 08:46:49;;;;;;;16.07;4.20;;;;;;;-145.69;100.00;52682.03;5112888;28;20240;-78
2023/02/04 08:49:15;;;;;;;13.80;4.20;;;;;;;-145.69;100.00;52614.72;5112854;28;20301;-77
2023/02/04 08:51:42;;;;;;;9.83;3.67;;;;;;;-145.69;100.00;52695.91;5112847;28;20194;-77
2023/02/04 08:54:08;;;;;;;15.33;4.77;;;;;;;-145.69;100.00;52646.41;5112587;28;20212;-77
2023/02/04 08:56:35;;;;;;;10.83;4.00;;;;;;;-145.69;100.00;52648.38;5098842;28;20248;-78
2023/02/04 08:59:02;;;;;;;19.03;4.30;;;;;;;-145.69;100.00;52670.16;5092609;28;20241;-78
2023/02/04 09:01:29;;;;;;;15.87;3.90;;;;;;;-145.69;100.00;52672.13;5104546;28;20194;-78
2023/02/04 09:03:55;;;;;;;18.07;4.50;;;;;;;-145.69;100.00;52650.34;5112626;28;20206;-78
2023/02/04 09:06:22;;;;;;;18.83;3.67;;;;;;;-145.69;100.00;52660.25;5112143;28;20194;-79
2023/02/04 09:08:48;;;;;;;11.73;3.63;;;;;;;-145.69;100.00;52666.19;5112819;28;20233;-79
2023/02/04 09:11:14;;;;;;;12.40;2.97;;;;;;;-145.69;100.00;52672.13;5112687;28;20602;-79
2023/02/04 09:13:41;;;;;;;15.80;3.90;;;;;;;-145.69;100.00;52674.13;5113004;28;20198;-79
2023/02/04 09:16:09;;;;;;;23.33;4.17;;;;;;;-145.69;100.00;52640.44;5112924;28;20198;-79
2023/02/04 09:18:36;;;;;;;11.30;3.17;;;;;;;-145.69;100.00;52666.19;5112598;28;20206;-79
2023/02/04 09:21:02;;;;;;;16.63;3.40;;;;;;;-145.69;100.00;52646.41;5100002;28;20213;-79
2023/02/04 09:23:29;;;;;;;23.87;3.93;;;;;;;-145.69;100.00;52654.31;5092263;28;20201;-77
2023/02/04 09:25:55;;;;;;;21.67;3.63;;;;;;;-145.69;100.00;52630.53;5092160;28;20232;-78
2023/02/04 09:28:22;;;;;;;17.47;3.67;;;;;;;-145.69;100.00;52652.34;5095902;28;20230;-77
2023/02/04 09:30:48;;;;;;;18.03;3.60;;;;;;;-145.69;100.00;52658.28;5095638;28;20771;-78
2023/02/04 09:33:16;;;;;;;14.83;3.10;;;;;;;-145.69;100.00;52662.22;5114626;28;20201;-77
2023/02/04 09:35:43;;;;;;;15.00;3.40;;;;;;;-145.69;100.00;52650.34;5115674;28;20253;-77
2023/02/04 09:38:09;;;;;;;22.67;3.73;;;;;;;-145.69;100.00;52642.44;5116099;28;20209;-77
2023/02/04 09:40:40;;;;;;;14.63;3.07;;;;;;;-145.69;100.00;52654.31;5116188;27;20652;-76
2023/02/04 09:43:07;;;;;;;19.60;3.40;;;;;;;-145.69;100.00;52660.25;5117734;27;20197;-77
2023/02/04 09:45:35;;;;;;;22.50;3.17;;;;;;;-145.69;100.00;52648.38;5115022;28;20561;-79
2023/02/04 09:48:03;;;;;;;28.53;4.00;;;;;;;-145.69;100.00;52634.50;5115684;28;20615;-77
2023/02/04 09:50:32;;;;;;;15.63;2.77;;;;;;;-145.69;100.00;52640.44;5116056;28;20200;-79
2023/02/04 09:53:03;;;;;;;19.40;3.50;;;;;;;-145.69;100.00;52670.16;5115820;28;20208;-78
2023/02/04 09:55:32;;;;;;;14.80;3.43;;;;;;;-145.69;100.00;52678.09;5115774;28;20201;-79
2023/02/04 09:57:59;;;;;;;16.53;3.50;;;;;;;-145.69;100.00;52668.19;5115515;28;20208;-77
2023/02/04 10:00:28;;;;;;;20.83;4.07;;;;;;;-145.69;100.00;52662.22;5115243;28;20200;-77
2023/02/04 10:02:55;;;;;;;21.80;3.40;;;;;;;-145.69;100.00;52648.38;5114649;28;20186;-77
2023/02/04 10:05:28;;;;;;;22.07;3.13;;;;;;;-145.69;100.00;52642.44;5115605;28;20205;-78
2023/02/04 10:07:56;;;;;;;13.70;3.27;;;;;;;-145.69;100.00;52638.47;5115455;28;20607;-78
2023/02/04 10:10:26;;;;;;;18.23;2.93;;;;;;;-145.69;100.00;52666.19;5114614;28;20205;-78
2023/02/04 10:12:56;;;;;;;17.40;3.93;;;;;;;-145.69;100.00;52672.13;5115330;28;20197;-78
2023/02/04 10:15:23;;;;;;;15.33;3.30;;;;;;;-145.69;100.00;52674.13;5115364;28;20559;-79
2023/02/04 10:17:54;;;;;;;21.80;4.40;;;;;;;-145.69;100.00;52662.22;5115147;28;20659;-79
2023/02/04 10:20:23;;;;;;;19.23;4.07;;;;;;;-145.69;100.00;52622.63;5115310;28;20694;-80
2023/02/04 10:22:52;;;;;;;11.30;2.73;;;;;;;-145.69;100.00;52658.28;5115351;28;20198;-80
2023/02/04 10:25:22;;;;;;;18.13;3.23;;;;;;;-145.69;100.00;52666.19;5114712;28;20598;-79
2023/02/04 10:27:50;;;;;;;11.27;3.27;;;;;;;-145.69;100.00;52654.31;5113570;28;20200;-80
2023/02/04 10:30:20;;;;;;;20.23;3.13;;;;;;;-145.69;100.00;52650.34;5111312;28;20205;-80
2023/02/04 10:32:47;;;;;;;16.00;3.03;;;;;;;-145.69;100.00;52642.44;5113653;28;20229;-80
2023/02/04 10:35:15;;;;;;;18.07;2.80;;;;;;;-145.69;100.00;52602.81;5114967;28;20209;-80
2023/02/04 10:37:42;;;;;;;16.50;3.00;;;;;;;-145.69;100.00;52618.66;5114189;28;20210;-81
2023/02/04 10:43:10;;;;;;;15.27;2.60;;;;;;;-145.69;100.00;52626.59;5128778;27;20556;-81
2023/02/04 10:45:37;;;;;;;14.30;3.20;;;;;;;-145.69;100.00;52638.47;5115074;28;20261;-81
2023/02/04 10:48:04;;;;;;;15.27;2.67;;;;;;;-145.69;100.00;52630.53;5131157;28;20208;-80
2023/02/04 10:50:31;;;;;;;11.27;2.40;;;;;;;-145.69;100.00;52642.44;5130948;28;20559;-80
2023/02/04 10:55:40;;;;;;;36.30;4.03;;;;;;;-145.69;100.00;52618.66;5130025;28;20193;-77
2023/02/04 10:58:10;;;;;;;12.07;2.87;;;;;;;-145.69;100.00;52596.88;5130716;28;20572;-78
2023/02/04 11:00:37;;;;;;;15.63;3.27;;;;;;;-145.69;100.00;52600.84;5122342;27;20193;-81
2023/02/04 11:03:07;;;;;;;14.57;3.00;;;;;;;-145.69;100.00;52628.56;5124315;28;20197;-81
2023/02/04 11:05:36;;;;;;;14.73;2.47;;;;;;;-145.69;100.00;52634.50;5110844;27;20259;-81
2023/02/04 11:08:18;;;;;;;11.97;2.53;;;;;;;-145.69;100.00;52638.47;5111759;28;20219;-82
2023/02/04 11:10:45;;;;;;;13.97;3.97;;;;;;;-145.69;100.00;52610.75;5111557;28;20556;-82
2023/02/04 11:13:22;;;;;;;60.27;17.90;;;;;;;-145.69;100.00;52642.44;5110776;28;20614;-83